Impacts TAF Board INFO
FOR SITUATIONAL AWARENESS. NOT TO BE USED FOR FLIGHT PLANNING PURPOSES.
IDs:

KTPA - Tampa Intl Arpt, FL, US

Issued at 2100 UTC 19 Jun 2018
Updated at 2206 UTC 19 Jun 2018
Potential Impact None Slight Moderate High
Time2153Z 19/23Z 20/00Z 20/01Z 20/02Z 20/03Z 20/04Z 20/05Z 20/06Z 20/07Z 20/08Z 20/09Z 20/10Z 20/11Z>>
Type OBS PRVL PRVL PRVL PRVL PRVL PRVL PRVL PRVL PRVL PRVL PRVL PRVL PRVL
VIS 10 >6 >6 >6 >6 >6 >6 >6 >6 >6 >6 >6 >6 >6
CIG 95 50 -- -- -- -- -- -- -- -- -- -- -- --
Cover BKN BKN SCT SCT SCT SCT SCT SCT SCT SCT SCT SCT SCT SCT
FltCat VFR VFR VFR VFR VFR VFR VFR VFR VFR VFR VFR VFR VFR VFR
WX -- -- -- -- -- -- -- -- -- -- -- -- -- --
WDir VRB 330 310 310 310 VRB VRB VRB VRB VRB VRB VRB VRB VRB
WSpd 5 8 5 5 5 3 3 3 3 3 3 3 3 3
WGst -- -- -- -- -- -- -- -- -- -- -- -- -- --

Raw TAF
KTPA 192100Z 1921/2024 33008KT P6SM BKN050
  FM200000 31005KT P6SM SCT050 SCT250
  FM200300 VRB03KT P6SM SCT250
  FM201400 22005KT P6SM SCT025 SCT250
  FM201600 25007KT P6SM VCTS BKN035CB
  FM202100 28008KT P6SM SCT040 SCT130 BKN250


Raw METAR
KTPA 192153Z VRB05KT 10SM FEW035 BKN095 BKN250 29/23 A2996 RMK AO2 LTG DSNT S TSE36 SLP146 CB DSNT SW TCU N AND S SHRA DSNT SW T02890228
KTPA 192136Z 29005KT 10SM FEW035TCU BKN095 BKN250 28/23 A2997 RMK AO2 LTG DSNT SW TSE36 CB DSNT SW TCU S AND W SHRA DSNT S-SW T02830228
KTPA 192053Z 34007KT 10SM TS SCT027CB BKN110 27/24 A2998 RMK AO2 LTG DSNT N AND S AND SW RAE51 SLP150 FRQ LTGCG VC S-SW TS VC S-SW MOV SW CB N TCU S AND W-N P0004 60004 T02670239 58010
KTPA 192018Z 35011G22KT 7SM -TSRA SCT027CB OVC110 26/23 A2999 RMK AO2 LTG DSNT SW-N VIS NW-N 2 1/2 FRQ LTGICCG N AND S-SW TS N AND S-SW MOV S P0002 T02610233
KTPA 191953Z 22009KT 10SM -TSRA SCT023 OVC043CB 28/22 A3000 RMK AO2 LTG DSNT NW-NE RAB1858E10B18 TSE08B18 SLP159 OCNL LTGCG N AND S TS N AND S MOV S TCU ALQDS P0000 T02830222

METAR Board
Radar Display
Forecast Discussion

FOR SITUATIONAL AWARENESS. NOT TO BE USED FOR FLIGHT PLANNING PURPOSES.